sensor_id;sensor_type;location;lat;lon;timestamp;temperature;humidity
20358;DHT22;75325;47.812;13.026;2024-03-25T00:00:36;10.50;55.80
20358;DHT22;75325;47.812;13.026;2024-03-25T00:03:04;10.50;55.80
20358;DHT22;75325;47.812;13.026;2024-03-25T00:05:30;10.40;55.80
20358;DHT22;75325;47.812;13.026;2024-03-25T00:07:58;10.40;56.50
20358;DHT22;75325;47.812;13.026;2024-03-25T00:10:25;10.40;55.90
20358;DHT22;75325;47.812;13.026;2024-03-25T00:12:54;10.50;55.90
20358;DHT22;75325;47.812;13.026;2024-03-25T00:15:21;10.50;55.80
20358;DHT22;75325;47.812;13.026;2024-03-25T00:17:49;10.60;55.80
20358;DHT22;75325;47.812;13.026;2024-03-25T00:20:16;10.70;55.70
20358;DHT22;75325;47.812;13.026;2024-03-25T00:22:44;10.70;55.60
20358;DHT22;75325;47.812;13.026;2024-03-25T00:25:11;10.70;55.60
20358;DHT22;75325;47.812;13.026;2024-03-25T00:27:38;10.70;55.70
20358;DHT22;75325;47.812;13.026;2024-03-25T00:30:07;10.80;55.60
20358;DHT22;75325;47.812;13.026;2024-03-25T00:32:35;10.80;56.30
20358;DHT22;75325;47.812;13.026;2024-03-25T00:35:01;10.80;55.60
20358;DHT22;75325;47.812;13.026;2024-03-25T00:37:29;10.90;55.60
20358;DHT22;75325;47.812;13.026;2024-03-25T00:39:55;11.00;55.60
20358;DHT22;75325;47.812;13.026;2024-03-25T00:42:22;11.00;55.50
20358;DHT22;75325;47.812;13.026;2024-03-25T00:44:48;11.00;55.40
20358;DHT22;75325;47.812;13.026;2024-03-25T00:47:17;11.00;55.40
20358;DHT22;75325;47.812;13.026;2024-03-25T00:49:43;11.10;55.40
20358;DHT22;75325;47.812;13.026;2024-03-25T00:52:10;11.10;55.30
20358;DHT22;75325;47.812;13.026;2024-03-25T00:54:37;11.10;55.30
20358;DHT22;75325;47.812;13.026;2024-03-25T00:57:04;11.20;55.30
20358;DHT22;75325;47.812;13.026;2024-03-25T00:59:31;11.20;55.30
20358;DHT22;75325;47.812;13.026;2024-03-25T01:01:58;11.30;55.20
20358;DHT22;75325;47.812;13.026;2024-03-25T01:04:25;11.30;55.20
20358;DHT22;75325;47.812;13.026;2024-03-25T01:06:53;11.20;55.00
20358;DHT22;75325;47.812;13.026;2024-03-25T01:09:19;11.20;55.00
20358;DHT22;75325;47.812;13.026;2024-03-25T01:11:47;11.10;55.10
20358;DHT22;75325;47.812;13.026;2024-03-25T01:14:14;11.00;55.20
20358;DHT22;75325;47.812;13.026;2024-03-25T01:16:41;11.00;55.20
20358;DHT22;75325;47.812;13.026;2024-03-25T01:19:08;11.00;55.30
20358;DHT22;75325;47.812;13.026;2024-03-25T01:21:37;10.90;55.40
20358;DHT22;75325;47.812;13.026;2024-03-25T01:24:04;11.00;55.40
20358;DHT22;75325;47.812;13.026;2024-03-25T01:26:31;11.00;55.50
20358;DHT22;75325;47.812;13.026;2024-03-25T01:28:57;11.00;55.40
20358;DHT22;75325;47.812;13.026;2024-03-25T01:31:25;11.00;55.40
20358;DHT22;75325;47.812;13.026;2024-03-25T01:33:51;10.90;55.30
20358;DHT22;75325;47.812;13.026;2024-03-25T01:36:18;10.80;55.30
20358;DHT22;75325;47.812;13.026;2024-03-25T01:38:46;10.80;55.40
20358;DHT22;75325;47.812;13.026;2024-03-25T01:41:14;10.70;55.50
20358;DHT22;75325;47.812;13.026;2024-03-25T01:43:41;10.70;55.50
20358;DHT22;75325;47.812;13.026;2024-03-25T01:46:09;10.60;55.50
20358;DHT22;75325;47.812;13.026;2024-03-25T01:48:36;10.60;55.50
20358;DHT22;75325;47.812;13.026;2024-03-25T01:51:03;10.60;55.50
20358;DHT22;75325;47.812;13.026;2024-03-25T01:53:30;10.60;55.50
20358;DHT22;75325;47.812;13.026;2024-03-25T01:56:00;10.50;56.10
20358;DHT22;75325;47.812;13.026;2024-03-25T01:58:26;10.50;55.40
20358;DHT22;75325;47.812;13.026;2024-03-25T02:00:55;10.50;55.40
20358;DHT22;75325;47.812;13.026;2024-03-25T02:03:22;10.40;55.40
20358;DHT22;75325;47.812;13.026;2024-03-25T02:05:52;10.30;55.40
20358;DHT22;75325;47.812;13.026;2024-03-25T02:08:21;10.30;55.50
20358;DHT22;75325;47.812;13.026;2024-03-25T02:10:49;10.10;55.40
20358;DHT22;75325;47.812;13.026;2024-03-25T02:13:17;10.00;55.50
20358;DHT22;75325;47.812;13.026;2024-03-25T02:15:44;9.90;55.70
20358;DHT22;75325;47.812;13.026;2024-03-25T02:18:11;9.80;55.80
20358;DHT22;75325;47.812;13.026;2024-03-25T02:20:38;9.80;56.00
20358;DHT22;75325;47.812;13.026;2024-03-25T02:23:04;9.80;56.10
20358;DHT22;75325;47.812;13.026;2024-03-25T02:25:33;9.70;56.10
20358;DHT22;75325;47.812;13.026;2024-03-25T02:28:00;9.70;56.10
20358;DHT22;75325;47.812;13.026;2024-03-25T02:30:28;9.70;56.90
20358;DHT22;75325;47.812;13.026;2024-03-25T02:32:54;9.70;56.10
20358;DHT22;75325;47.812;13.026;2024-03-25T02:35:22;9.70;56.10
20358;DHT22;75325;47.812;13.026;2024-03-25T02:37:50;9.70;56.90
20358;DHT22;75325;47.812;13.026;2024-03-25T02:40:19;9.70;56.20
20358;DHT22;75325;47.812;13.026;2024-03-25T02:42:45;9.70;56.30
20358;DHT22;75325;47.812;13.026;2024-03-25T02:45:14;9.70;56.30
20358;DHT22;75325;47.812;13.026;2024-03-25T02:47:40;9.70;56.40
20358;DHT22;75325;47.812;13.026;2024-03-25T02:50:08;9.70;56.40
20358;DHT22;75325;47.812;13.026;2024-03-25T02:52:34;9.80;56.30
20358;DHT22;75325;47.812;13.026;2024-03-25T02:55:01;9.80;56.30
20358;DHT22;75325;47.812;13.026;2024-03-25T02:57:27;9.80;56.20
20358;DHT22;75325;47.812;13.026;2024-03-25T02:59:54;9.80;56.20
20358;DHT22;75325;47.812;13.026;2024-03-25T03:02:22;9.90;56.20
20358;DHT22;75325;47.812;13.026;2024-03-25T03:04:50;9.90;56.30
20358;DHT22;75325;47.812;13.026;2024-03-25T03:07:17;9.90;56.10
20358;DHT22;75325;47.812;13.026;2024-03-25T03:09:44;9.90;56.20
20358;DHT22;75325;47.812;13.026;2024-03-25T03:12:10;9.90;56.20
20358;DHT22;75325;47.812;13.026;2024-03-25T03:14:37;9.90;56.30
20358;DHT22;75325;47.812;13.026;2024-03-25T03:17:04;9.90;56.30
20358;DHT22;75325;47.812;13.026;2024-03-25T03:19:33;9.90;56.30
20358;DHT22;75325;47.812;13.026;2024-03-25T03:22:02;9.90;56.30
20358;DHT22;75325;47.812;13.026;2024-03-25T03:24:29;9.90;56.30
20358;DHT22;75325;47.812;13.026;2024-03-25T03:26:55;9.90;56.30
20358;DHT22;75325;47.812;13.026;2024-03-25T03:29:23;9.90;56.30
20358;DHT22;75325;47.812;13.026;2024-03-25T03:31:49;9.90;56.30
20358;DHT22;75325;47.812;13.026;2024-03-25T03:34:16;9.80;57.10
20358;DHT22;75325;47.812;13.026;2024-03-25T03:36:44;9.80;56.50
20358;DHT22;75325;47.812;13.026;2024-03-25T03:39:11;9.80;56.50
20358;DHT22;75325;47.812;13.026;2024-03-25T03:41:39;9.80;56.50
20358;DHT22;75325;47.812;13.026;2024-03-25T03:44:06;9.70;56.50
20358;DHT22;75325;47.812;13.026;2024-03-25T03:46:32;9.70;56.60
20358;DHT22;75325;47.812;13.026;2024-03-25T03:48:59;9.70;56.50
20358;DHT22;75325;47.812;13.026;2024-03-25T03:51:26;9.70;56.50
20358;DHT22;75325;47.812;13.026;2024-03-25T03:53:55;9.70;56.50
20358;DHT22;75325;47.812;13.026;2024-03-25T03:56:22;9.70;56.50
20358;DHT22;75325;47.812;13.026;2024-03-25T03:58:49;9.60;56.60
20358;DHT22;75325;47.812;13.026;2024-03-25T04:01:16;9.60;57.40
20358;DHT22;75325;47.812;13.026;2024-03-25T04:03:43;9.70;56.80
20358;DHT22;75325;47.812;13.026;2024-03-25T04:06:11;9.60;56.70
20358;DHT22;75325;47.812;13.026;2024-03-25T04:08:38;9.60;56.80
20358;DHT22;75325;47.812;13.026;2024-03-25T04:11:06;9.60;56.70
20358;DHT22;75325;47.812;13.026;2024-03-25T04:13:34;9.60;56.80
20358;DHT22;75325;47.812;13.026;2024-03-25T04:16:02;9.70;56.90
20358;DHT22;75325;47.812;13.026;2024-03-25T04:18:30;9.70;56.70
20358;DHT22;75325;47.812;13.026;2024-03-25T04:20:57;9.80;56.80
20358;DHT22;75325;47.812;13.026;2024-03-25T04:23:24;9.90;56.70
20358;DHT22;75325;47.812;13.026;2024-03-25T04:25:51;9.90;56.90
20358;DHT22;75325;47.812;13.026;2024-03-25T04:28:21;9.90;56.60
20358;DHT22;75325;47.812;13.026;2024-03-25T04:30:52;9.90;56.60
20358;DHT22;75325;47.812;13.026;2024-03-25T04:33:20;10.00;56.70
20358;DHT22;75325;47.812;13.026;2024-03-25T04:35:47;10.00;56.50
20358;DHT22;75325;47.812;13.026;2024-03-25T04:38:16;10.00;56.60
20358;DHT22;75325;47.812;13.026;2024-03-25T04:40:42;9.90;56.50
20358;DHT22;75325;47.812;13.026;2024-03-25T04:43:09;9.90;56.50
20358;DHT22;75325;47.812;13.026;2024-03-25T04:45:36;9.90;56.70
20358;DHT22;75325;47.812;13.026;2024-03-25T04:48:03;9.90;56.60
20358;DHT22;75325;47.812;13.026;2024-03-25T04:50:31;9.90;56.60
20358;DHT22;75325;47.812;13.026;2024-03-25T04:52:57;9.90;56.60
20358;DHT22;75325;47.812;13.026;2024-03-25T04:55:23;9.90;56.70
20358;DHT22;75325;47.812;13.026;2024-03-25T04:57:49;9.90;56.60
20358;DHT22;75325;47.812;13.026;2024-03-25T05:00:18;9.90;56.60
20358;DHT22;75325;47.812;13.026;2024-03-25T05:02:45;9.90;56.60
20358;DHT22;75325;47.812;13.026;2024-03-25T05:05:12;9.80;56.60
20358;DHT22;75325;47.812;13.026;2024-03-25T05:07:38;9.80;56.80
20358;DHT22;75325;47.812;13.026;2024-03-25T05:10:06;9.80;56.70
20358;DHT22;75325;47.812;13.026;2024-03-25T05:12:32;9.80;56.90
20358;DHT22;75325;47.812;13.026;2024-03-25T05:14:58;9.80;56.70
20358;DHT22;75325;47.812;13.026;2024-03-25T05:17:25;9.80;56.80
20358;DHT22;75325;47.812;13.026;2024-03-25T05:19:52;9.80;56.80
20358;DHT22;75325;47.812;13.026;2024-03-25T05:22:19;9.80;56.80
20358;DHT22;75325;47.812;13.026;2024-03-25T05:24:45;9.70;56.80
20358;DHT22;75325;47.812;13.026;2024-03-25T05:27:11;9.70;56.90
20358;DHT22;75325;47.812;13.026;2024-03-25T05:29:37;9.70;57.00
20358;DHT22;75325;47.812;13.026;2024-03-25T05:32:05;9.80;57.10
20358;DHT22;75325;47.812;13.026;2024-03-25T05:34:31;9.80;57.10
20358;DHT22;75325;47.812;13.026;2024-03-25T05:36:59;9.90;57.00
20358;DHT22;75325;47.812;13.026;2024-03-25T05:39:25;9.90;56.90
20358;DHT22;75325;47.812;13.026;2024-03-25T05:41:51;10.00;57.50
20358;DHT22;75325;47.812;13.026;2024-03-25T05:44:18;10.00;56.80
20358;DHT22;75325;47.812;13.026;2024-03-25T05:46:44;10.00;56.80
20358;DHT22;75325;47.812;13.026;2024-03-25T05:49:10;10.10;56.90
20358;DHT22;75325;47.812;13.026;2024-03-25T05:51:37;10.10;56.80
20358;DHT22;75325;47.812;13.026;2024-03-25T05:54:05;10.20;56.80
20358;DHT22;75325;47.812;13.026;2024-03-25T05:56:32;10.30;56.60
20358;DHT22;75325;47.812;13.026;2024-03-25T05:58:58;10.40;56.60
20358;DHT22;75325;47.812;13.026;2024-03-25T06:01:25;10.40;56.50
20358;DHT22;75325;47.812;13.026;2024-03-25T06:03:53;10.40;56.50
20358;DHT22;75325;47.812;13.026;2024-03-25T06:06:19;10.40;56.50
20358;DHT22;75325;47.812;13.026;2024-03-25T06:08:46;10.50;56.60
20358;DHT22;75325;47.812;13.026;2024-03-25T06:11:13;10.50;56.50
20358;DHT22;75325;47.812;13.026;2024-03-25T06:13:39;10.50;56.60
20358;DHT22;75325;47.812;13.026;2024-03-25T06:16:06;10.60;56.60
20358;DHT22;75325;47.812;13.026;2024-03-25T06:18:32;10.60;56.60
20358;DHT22;75325;47.812;13.026;2024-03-25T06:20:59;10.60;56.50
20358;DHT22;75325;47.812;13.026;2024-03-25T06:23:25;10.60;56.40
20358;DHT22;75325;47.812;13.026;2024-03-25T06:25:53;10.60;56.50
20358;DHT22;75325;47.812;13.026;2024-03-25T06:28:21;10.70;56.50
20358;DHT22;75325;47.812;13.026;2024-03-25T06:30:49;10.70;56.40
20358;DHT22;75325;47.812;13.026;2024-03-25T06:33:34;10.80;56.40
20358;DHT22;75325;47.812;13.026;2024-03-25T06:36:19;10.90;56.70
20358;DHT22;75325;47.812;13.026;2024-03-25T06:38:45;10.90;56.40
20358;DHT22;75325;47.812;13.026;2024-03-25T06:41:12;11.00;56.50
20358;DHT22;75325;47.812;13.026;2024-03-25T06:43:40;11.00;56.30
20358;DHT22;75325;47.812;13.026;2024-03-25T06:46:06;11.00;56.30
20358;DHT22;75325;47.812;13.026;2024-03-25T06:48:33;11.10;56.60
20358;DHT22;75325;47.812;13.026;2024-03-25T06:51:00;11.20;57.00
20358;DHT22;75325;47.812;13.026;2024-03-25T06:53:26;11.40;56.40
20358;DHT22;75325;47.812;13.026;2024-03-25T06:55:54;11.60;56.50
20358;DHT22;75325;47.812;13.026;2024-03-25T06:58:22;12.00;56.40
20358;DHT22;75325;47.812;13.026;2024-03-25T07:00:50;12.20;56.00
20358;DHT22;75325;47.812;13.026;2024-03-25T07:03:16;12.30;55.80
20358;DHT22;75325;47.812;13.026;2024-03-25T07:05:44;12.50;55.80
20358;DHT22;75325;47.812;13.026;2024-03-25T07:08:11;12.60;55.50
20358;DHT22;75325;47.812;13.026;2024-03-25T07:10:38;12.60;55.30
20358;DHT22;75325;47.812;13.026;2024-03-25T07:13:04;12.60;55.30
20358;DHT22;75325;47.812;13.026;2024-03-25T07:15:31;12.50;55.30
20358;DHT22;75325;47.812;13.026;2024-03-25T07:17:59;12.50;55.20
20358;DHT22;75325;47.812;13.026;2024-03-25T07:20:25;12.60;55.50
20358;DHT22;75325;47.812;13.026;2024-03-25T07:22:52;12.60;55.40
20358;DHT22;75325;47.812;13.026;2024-03-25T07:25:19;12.60;55.40
20358;DHT22;75325;47.812;13.026;2024-03-25T07:27:45;12.80;55.70
20358;DHT22;75325;47.812;13.026;2024-03-25T07:30:12;13.00;55.70
20358;DHT22;75325;47.812;13.026;2024-03-25T07:32:38;13.20;55.50
20358;DHT22;75325;47.812;13.026;2024-03-25T07:35:06;13.40;55.40
20358;DHT22;75325;47.812;13.026;2024-03-25T07:37:33;13.60;55.30
20358;DHT22;75325;47.812;13.026;2024-03-25T07:39:59;13.70;55.00
20358;DHT22;75325;47.812;13.026;2024-03-25T07:42:26;13.70;54.70
20358;DHT22;75325;47.812;13.026;2024-03-25T07:44:52;13.60;54.60
20358;DHT22;75325;47.812;13.026;2024-03-25T07:47:18;13.50;54.60
20358;DHT22;75325;47.812;13.026;2024-03-25T07:49:45;13.40;54.80
20358;DHT22;75325;47.812;13.026;2024-03-25T07:52:12;13.50;55.20
20358;DHT22;75325;47.812;13.026;2024-03-25T07:54:39;14.00;55.70
20358;DHT22;75325;47.812;13.026;2024-03-25T07:57:05;15.20;56.30
20358;DHT22;75325;47.812;13.026;2024-03-25T07:59:31;16.70;56.60
20358;DHT22;75325;47.812;13.026;2024-03-25T08:01:58;18.50;55.00
20358;DHT22;75325;47.812;13.026;2024-03-25T08:04:24;19.30;53.70
20358;DHT22;75325;47.812;13.026;2024-03-25T08:06:50;20.80;53.10
20358;DHT22;75325;47.812;13.026;2024-03-25T08:09:18;22.30;51.90
20358;DHT22;75325;47.812;13.026;2024-03-25T08:11:44;23.60;50.30
20358;DHT22;75325;47.812;13.026;2024-03-25T08:14:11;24.90;49.60
20358;DHT22;75325;47.812;13.026;2024-03-25T08:16:38;25.20;46.20
20358;DHT22;75325;47.812;13.026;2024-03-25T08:19:04;24.10;45.00
20358;DHT22;75325;47.812;13.026;2024-03-25T08:21:31;24.30;48.00
20358;DHT22;75325;47.812;13.026;2024-03-25T08:23:57;25.40;46.80
20358;DHT22;75325;47.812;13.026;2024-03-25T08:26:25;25.20;45.00
20358;DHT22;75325;47.812;13.026;2024-03-25T08:28:51;24.40;44.60
20358;DHT22;75325;47.812;13.026;2024-03-25T08:31:17;24.00;46.30
20358;DHT22;75325;47.812;13.026;2024-03-25T08:33:44;24.40;46.00
20358;DHT22;75325;47.812;13.026;2024-03-25T08:36:10;24.20;45.10
20358;DHT22;75325;47.812;13.026;2024-03-25T08:38:37;23.50;44.20
20358;DHT22;75325;47.812;13.026;2024-03-25T08:41:03;22.50;44.20
20358;DHT22;75325;47.812;13.026;2024-03-25T08:43:31;21.60;45.10
20358;DHT22;75325;47.812;13.026;2024-03-25T08:45:57;21.10;46.10
20358;DHT22;75325;47.812;13.026;2024-03-25T08:48:24;21.20;47.10
20358;DHT22;75325;47.812;13.026;2024-03-25T08:50:50;21.40;47.10
20358;DHT22;75325;47.812;13.026;2024-03-25T08:53:16;21.70;46.30
20358;DHT22;75325;47.812;13.026;2024-03-25T08:55:45;21.50;45.80
20358;DHT22;75325;47.812;13.026;2024-03-25T08:58:12;21.10;45.60
20358;DHT22;75325;47.812;13.026;2024-03-25T09:00:40;20.70;45.80
20358;DHT22;75325;47.812;13.026;2024-03-25T09:03:07;20.20;45.80
20358;DHT22;75325;47.812;13.026;2024-03-25T09:05:33;19.80;46.00
20358;DHT22;75325;47.812;13.026;2024-03-25T09:07:59;20.10;48.20
20358;DHT22;75325;47.812;13.026;2024-03-25T09:10:26;21.90;48.60
20358;DHT22;75325;47.812;13.026;2024-03-25T09:13:11;23.70;47.20
20358;DHT22;75325;47.812;13.026;2024-03-25T09:15:37;26.10;46.10
20358;DHT22;75325;47.812;13.026;2024-03-25T09:18:05;27.80;43.90
20358;DHT22;75325;47.812;13.026;2024-03-25T09:20:31;28.00;41.60
20358;DHT22;75325;47.812;13.026;2024-03-25T09:22:57;27.50;40.90
20358;DHT22;75325;47.812;13.026;2024-03-25T09:25:24;27.30;41.60
20358;DHT22;75325;47.812;13.026;2024-03-25T09:27:51;27.30;41.50
20358;DHT22;75325;47.812;13.026;2024-03-25T09:30:17;26.90;41.40
20358;DHT22;75325;47.812;13.026;2024-03-25T09:32:44;26.20;40.60
20358;DHT22;75325;47.812;13.026;2024-03-25T09:35:11;25.70;41.20
20358;DHT22;75325;47.812;13.026;2024-03-25T09:37:38;25.20;40.90
20358;DHT22;75325;47.812;13.026;2024-03-25T09:40:05;24.70;41.80
20358;DHT22;75325;47.812;13.026;2024-03-25T09:42:36;24.90;42.30
20358;DHT22;75325;47.812;13.026;2024-03-25T09:45:07;26.30;42.60
20358;DHT22;75325;47.812;13.026;2024-03-25T09:47:34;27.20;40.80
20358;DHT22;75325;47.812;13.026;2024-03-25T09:50:02;27.20;39.60
20358;DHT22;75325;47.812;13.026;2024-03-25T09:52:31;26.20;38.30
20358;DHT22;75325;47.812;13.026;2024-03-25T09:54:58;25.00;38.60
20358;DHT22;75325;47.812;13.026;2024-03-25T09:57:25;23.90;39.40
20358;DHT22;75325;47.812;13.026;2024-03-25T09:59:51;23.10;40.50
20358;DHT22;75325;47.812;13.026;2024-03-25T10:02:18;22.80;41.10
20358;DHT22;75325;47.812;13.026;2024-03-25T10:04:47;22.90;41.50
20358;DHT22;75325;47.812;13.026;2024-03-25T10:07:21;22.80;41.20
20358;DHT22;75325;47.812;13.026;2024-03-25T10:09:49;23.40;42.40
20358;DHT22;75325;47.812;13.026;2024-03-25T10:12:15;24.40;41.60
20358;DHT22;75325;47.812;13.026;2024-03-25T10:14:42;26.00;41.40
20358;DHT22;75325;47.812;13.026;2024-03-25T10:17:08;27.50;40.60
20358;DHT22;75325;47.812;13.026;2024-03-25T10:19:35;29.20;40.20
20358;DHT22;75325;47.812;13.026;2024-03-25T10:22:03;30.60;37.90
20358;DHT22;75325;47.812;13.026;2024-03-25T10:24:40;31.70;36.90
20358;DHT22;75325;47.812;13.026;2024-03-25T10:27:10;32.60;35.30
20358;DHT22;75325;47.812;13.026;2024-03-25T10:29:37;33.40;34.60
20358;DHT22;75325;47.812;13.026;2024-03-25T10:32:04;33.90;33.90
20358;DHT22;75325;47.812;13.026;2024-03-25T10:34:32;34.40;33.20
20358;DHT22;75325;47.812;13.026;2024-03-25T10:36:58;34.40;31.90
20358;DHT22;75325;47.812;13.026;2024-03-25T10:39:27;34.20;31.90
20358;DHT22;75325;47.812;13.026;2024-03-25T10:41:57;34.30;31.80
20358;DHT22;75325;47.812;13.026;2024-03-25T10:44:28;34.60;31.40
20358;DHT22;75325;47.812;13.026;2024-03-25T10:47:00;34.50;30.70
20358;DHT22;75325;47.812;13.026;2024-03-25T10:49:33;34.50;30.60
20358;DHT22;75325;47.812;13.026;2024-03-25T10:52:02;34.60;30.30
20358;DHT22;75325;47.812;13.026;2024-03-25T10:54:30;34.70;29.90
20358;DHT22;75325;47.812;13.026;2024-03-25T10:56:58;34.60;29.60
20358;DHT22;75325;47.812;13.026;2024-03-25T10:59:27;34.30;29.30
20358;DHT22;75325;47.812;13.026;2024-03-25T11:01:53;33.80;29.20
20358;DHT22;75325;47.812;13.026;2024-03-25T11:04:21;33.20;29.40
20358;DHT22;75325;47.812;13.026;2024-03-25T11:06:48;32.80;29.50
20358;DHT22;75325;47.812;13.026;2024-03-25T11:09:23;32.50;29.60
20358;DHT22;75325;47.812;13.026;2024-03-25T11:11:53;32.00;29.40
20358;DHT22;75325;47.812;13.026;2024-03-25T11:14:20;31.40;29.60
20358;DHT22;75325;47.812;13.026;2024-03-25T11:16:52;30.60;29.80
20358;DHT22;75325;47.812;13.026;2024-03-25T11:19:20;29.60;30.00
20358;DHT22;75325;47.812;13.026;2024-03-25T11:21:47;28.30;30.30
20358;DHT22;75325;47.812;13.026;2024-03-25T11:24:13;26.80;31.10
20358;DHT22;75325;47.812;13.026;2024-03-25T11:26:42;25.30;32.00
20358;DHT22;75325;47.812;13.026;2024-03-25T11:29:09;23.80;32.90
20358;DHT22;75325;47.812;13.026;2024-03-25T11:31:39;22.70;34.20
20358;DHT22;75325;47.812;13.026;2024-03-25T11:34:07;21.90;35.30
20358;DHT22;75325;47.812;13.026;2024-03-25T11:36:34;21.10;35.70
20358;DHT22;75325;47.812;13.026;2024-03-25T11:39:01;20.50;36.30
20358;DHT22;75325;47.812;13.026;2024-03-25T11:41:29;20.00;36.70
20358;DHT22;75325;47.812;13.026;2024-03-25T11:43:56;19.60;37.30
20358;DHT22;75325;47.812;13.026;2024-03-25T11:46:24;19.30;37.80
20358;DHT22;75325;47.812;13.026;2024-03-25T11:48:51;19.00;37.90
20358;DHT22;75325;47.812;13.026;2024-03-25T11:51:19;18.90;38.30
20358;DHT22;75325;47.812;13.026;2024-03-25T11:53:46;18.80;38.50
20358;DHT22;75325;47.812;13.026;2024-03-25T11:56:13;18.80;38.60
20358;DHT22;75325;47.812;13.026;2024-03-25T11:58:40;18.80;38.60
20358;DHT22;75325;47.812;13.026;2024-03-25T12:01:06;18.90;38.70
20358;DHT22;75325;47.812;13.026;2024-03-25T12:03:33;18.90;38.80
20358;DHT22;75325;47.812;13.026;2024-03-25T12:06:00;19.00;38.60
20358;DHT22;75325;47.812;13.026;2024-03-25T12:08:29;19.00;38.70
20358;DHT22;75325;47.812;13.026;2024-03-25T12:10:55;19.10;38.60
20358;DHT22;75325;47.812;13.026;2024-03-25T12:13:40;19.00;38.50
20358;DHT22;75325;47.812;13.026;2024-03-25T12:16:06;19.10;38.60
20358;DHT22;75325;47.812;13.026;2024-03-25T12:18:33;19.00;38.40
20358;DHT22;75325;47.812;13.026;2024-03-25T12:21:00;19.00;38.60
20358;DHT22;75325;47.812;13.026;2024-03-25T12:23:30;19.00;38.60
20358;DHT22;75325;47.812;13.026;2024-03-25T12:25:58;19.10;38.50
20358;DHT22;75325;47.812;13.026;2024-03-25T12:28:25;19.10;38.50
20358;DHT22;75325;47.812;13.026;2024-03-25T12:30:52;19.10;38.60
20358;DHT22;75325;47.812;13.026;2024-03-25T12:33:18;19.10;38.70
20358;DHT22;75325;47.812;13.026;2024-03-25T12:35:46;19.20;38.70
20358;DHT22;75325;47.812;13.026;2024-03-25T12:38:23;19.30;38.60
20358;DHT22;75325;47.812;13.026;2024-03-25T12:40:51;19.40;38.50
20358;DHT22;75325;47.812;13.026;2024-03-25T12:43:18;19.40;38.40
20358;DHT22;75325;47.812;13.026;2024-03-25T12:45:44;19.40;38.20
20358;DHT22;75325;47.812;13.026;2024-03-25T12:48:11;19.50;38.40
20358;DHT22;75325;47.812;13.026;2024-03-25T12:50:37;19.60;38.60
20358;DHT22;75325;47.812;13.026;2024-03-25T12:53:04;19.70;38.30
20358;DHT22;75325;47.812;13.026;2024-03-25T12:55:30;19.80;38.30
20358;DHT22;75325;47.812;13.026;2024-03-25T12:57:58;19.90;37.90
20358;DHT22;75325;47.812;13.026;2024-03-25T13:00:24;19.80;37.70
20358;DHT22;75325;47.812;13.026;2024-03-25T13:02:50;19.80;38.00
20358;DHT22;75325;47.812;13.026;2024-03-25T13:05:17;19.60;38.30
20358;DHT22;75325;47.812;13.026;2024-03-25T13:07:43;19.40;37.60
20358;DHT22;75325;47.812;13.026;2024-03-25T13:10:09;19.30;37.80
20358;DHT22;75325;47.812;13.026;2024-03-25T13:12:36;19.10;38.00
20358;DHT22;75325;47.812;13.026;2024-03-25T13:15:05;19.10;37.90
20358;DHT22;75325;47.812;13.026;2024-03-25T13:17:31;18.90;37.70
20358;DHT22;75325;47.812;13.026;2024-03-25T13:19:57;18.60;37.80
20358;DHT22;75325;47.812;13.026;2024-03-25T13:22:24;18.50;38.00
20358;DHT22;75325;47.812;13.026;2024-03-25T13:24:50;18.40;38.20
20358;DHT22;75325;47.812;13.026;2024-03-25T13:27:16;18.30;38.20
20358;DHT22;75325;47.812;13.026;2024-03-25T13:29:43;18.40;38.50
20358;DHT22;75325;47.812;13.026;2024-03-25T13:32:11;18.50;38.50
20358;DHT22;75325;47.812;13.026;2024-03-25T13:34:37;18.60;38.70
20358;DHT22;75325;47.812;13.026;2024-03-25T13:37:03;18.70;38.50
20358;DHT22;75325;47.812;13.026;2024-03-25T13:39:30;18.80;38.30
20358;DHT22;75325;47.812;13.026;2024-03-25T13:41:56;18.70;38.10
20358;DHT22;75325;47.812;13.026;2024-03-25T13:44:22;18.70;38.00
20358;DHT22;75325;47.812;13.026;2024-03-25T13:46:49;18.60;37.90
20358;DHT22;75325;47.812;13.026;2024-03-25T13:49:16;18.60;38.20
20358;DHT22;75325;47.812;13.026;2024-03-25T13:51:43;18.50;37.90
20358;DHT22;75325;47.812;13.026;2024-03-25T13:54:09;18.50;38.60
20358;DHT22;75325;47.812;13.026;2024-03-25T13:56:35;18.40;38.50
20358;DHT22;75325;47.812;13.026;2024-03-25T13:59:01;18.40;38.10
20358;DHT22;75325;47.812;13.026;2024-03-25T14:01:28;18.40;38.10
20358;DHT22;75325;47.812;13.026;2024-03-25T14:03:55;18.40;38.20
20358;DHT22;75325;47.812;13.026;2024-03-25T14:06:23;18.30;38.20
20358;DHT22;75325;47.812;13.026;2024-03-25T14:08:50;18.40;38.30
20358;DHT22;75325;47.812;13.026;2024-03-25T14:11:16;18.40;38.90
20358;DHT22;75325;47.812;13.026;2024-03-25T14:13:43;18.50;38.40
20358;DHT22;75325;47.812;13.026;2024-03-25T14:16:09;18.50;38.20
20358;DHT22;75325;47.812;13.026;2024-03-25T14:18:36;18.60;38.20
20358;DHT22;75325;47.812;13.026;2024-03-25T14:21:03;18.60;38.10
20358;DHT22;75325;47.812;13.026;2024-03-25T14:23:31;18.60;38.00
20358;DHT22;75325;47.812;13.026;2024-03-25T14:25:58;18.50;37.80
20358;DHT22;75325;47.812;13.026;2024-03-25T14:28:24;18.40;37.90
20358;DHT22;75325;47.812;13.026;2024-03-25T14:30:51;18.40;38.00
20358;DHT22;75325;47.812;13.026;2024-03-25T14:33:18;18.50;38.10
20358;DHT22;75325;47.812;13.026;2024-03-25T14:35:44;18.50;38.10
20358;DHT22;75325;47.812;13.026;2024-03-25T14:38:10;18.60;38.10
20358;DHT22;75325;47.812;13.026;2024-03-25T14:40:39;18.60;38.00
20358;DHT22;75325;47.812;13.026;2024-03-25T14:43:05;18.70;37.90
20358;DHT22;75325;47.812;13.026;2024-03-25T14:45:32;18.60;37.90
20358;DHT22;75325;47.812;13.026;2024-03-25T14:47:59;18.60;37.70
20358;DHT22;75325;47.812;13.026;2024-03-25T14:50:25;18.40;37.30
20358;DHT22;75325;47.812;13.026;2024-03-25T14:52:51;18.20;37.10
20358;DHT22;75325;47.812;13.026;2024-03-25T14:55:18;18.00;37.50
20358;DHT22;75325;47.812;13.026;2024-03-25T14:57:46;17.90;37.40
20358;DHT22;75325;47.812;13.026;2024-03-25T15:00:13;17.70;37.50
20358;DHT22;75325;47.812;13.026;2024-03-25T15:02:40;17.70;37.80
20358;DHT22;75325;47.812;13.026;2024-03-25T15:05:07;17.60;37.80
20358;DHT22;75325;47.812;13.026;2024-03-25T15:07:34;17.50;38.00
20358;DHT22;75325;47.812;13.026;2024-03-25T15:10:01;17.50;38.20
20358;DHT22;75325;47.812;13.026;2024-03-25T15:12:28;17.50;38.30
20358;DHT22;75325;47.812;13.026;2024-03-25T15:14:56;17.40;38.10
20358;DHT22;75325;47.812;13.026;2024-03-25T15:17:22;17.40;38.20
20358;DHT22;75325;47.812;13.026;2024-03-25T15:19:49;17.30;38.20